KPCD/PCD METAR and TAF weather

Enter ICAO airport designator
Station Type Date Time Source
KPCD METAR 2019/06/27 08:15 UTC NOAA

KPCD 270815Z AUTO 12004KT 10SM BKN008 19/19 A3016 RMK AO2 T01920186


Station Type Date Time Source
KPCD Decoded METAR 2019/06/27 08:15 UTC NOAA

Station name not available
Jun 27, 2019 - 04:15 AM EDT / 2019.06.27 0815 UTC
Wind: from the ESE (120 degrees) at 5 MPH (4 KT):0
Visibility: 10 mile(s):0
Sky conditions: mostly cloudy
Temperature: 66.6 F (19.2 C)
Dew Point: 65.5 F (18.6 C)
Relative Humidity: 96%
Pressure (altimeter): 30.16 in. Hg (1021 hPa)
ob: KPCD 270815Z AUTO 12004KT 10SM BKN008 19/19 A3016 RMK AO2 T01920186
cycle: 8

Station Type Date Time Source
KPCD TAF UTC NOAA

Error!

Example: see airport list